sensor_id;sensor_type;location;lat;lon;timestamp;temperature;humidity
7646;DHT22;3864;48.180;14.178;2022-11-23T00:00:46;1.90;99.90
7646;DHT22;3864;48.180;14.178;2022-11-23T00:03:14;1.90;99.90
7646;DHT22;3864;48.180;14.178;2022-11-23T00:05:41;1.90;99.90
7646;DHT22;3864;48.180;14.178;2022-11-23T00:08:09;1.90;99.90
7646;DHT22;3864;48.180;14.178;2022-11-23T00:10:37;1.90;99.90
7646;DHT22;3864;48.180;14.178;2022-11-23T00:13:05;1.90;99.90
7646;DHT22;3864;48.180;14.178;2022-11-23T00:15:32;1.90;99.90
7646;DHT22;3864;48.180;14.178;2022-11-23T00:18:00;1.90;99.90
7646;DHT22;3864;48.180;14.178;2022-11-23T00:20:27;1.90;99.90
7646;DHT22;3864;48.180;14.178;2022-11-23T00:22:54;2.00;99.90
7646;DHT22;3864;48.180;14.178;2022-11-23T00:25:21;2.00;99.90
7646;DHT22;3864;48.180;14.178;2022-11-23T00:27:51;2.00;99.90
7646;DHT22;3864;48.180;14.178;2022-11-23T00:30:18;2.00;99.90
7646;DHT22;3864;48.180;14.178;2022-11-23T00:32:45;2.00;99.90
7646;DHT22;3864;48.180;14.178;2022-11-23T00:35:13;2.00;99.90
7646;DHT22;3864;48.180;14.178;2022-11-23T00:37:40;2.00;99.90
7646;DHT22;3864;48.180;14.178;2022-11-23T00:40:09;2.00;99.90
7646;DHT22;3864;48.180;14.178;2022-11-23T00:42:36;2.00;99.90
7646;DHT22;3864;48.180;14.178;2022-11-23T00:45:06;2.00;99.90
7646;DHT22;3864;48.180;14.178;2022-11-23T00:47:34;2.00;99.90
7646;DHT22;3864;48.180;14.178;2022-11-23T00:50:01;2.00;99.90
7646;DHT22;3864;48.180;14.178;2022-11-23T00:52:29;2.00;99.90
7646;DHT22;3864;48.180;14.178;2022-11-23T00:54:56;2.00;99.90
7646;DHT22;3864;48.180;14.178;2022-11-23T00:57:23;2.00;99.90
7646;DHT22;3864;48.180;14.178;2022-11-23T00:59:51;2.00;99.90
7646;DHT22;3864;48.180;14.178;2022-11-23T01:02:20;2.00;99.90
7646;DHT22;3864;48.180;14.178;2022-11-23T01:04:47;2.00;99.90
7646;DHT22;3864;48.180;14.178;2022-11-23T01:07:15;2.10;99.90
7646;DHT22;3864;48.180;14.178;2022-11-23T01:09:42;2.20;99.90
7646;DHT22;3864;48.180;14.178;2022-11-23T01:12:09;2.10;99.90
7646;DHT22;3864;48.180;14.178;2022-11-23T01:14:37;2.10;99.90
7646;DHT22;3864;48.180;14.178;2022-11-23T01:17:04;2.10;99.90
7646;DHT22;3864;48.180;14.178;2022-11-23T01:19:33;2.10;99.90
7646;DHT22;3864;48.180;14.178;2022-11-23T01:22:00;2.20;99.90
7646;DHT22;3864;48.180;14.178;2022-11-23T01:24:28;2.20;99.90
7646;DHT22;3864;48.180;14.178;2022-11-23T01:26:55;2.20;99.90
7646;DHT22;3864;48.180;14.178;2022-11-23T01:29:23;2.20;99.90
7646;DHT22;3864;48.180;14.178;2022-11-23T01:31:50;2.30;99.90
7646;DHT22;3864;48.180;14.178;2022-11-23T01:34:18;2.30;99.90
7646;DHT22;3864;48.180;14.178;2022-11-23T01:36:47;2.30;99.90
7646;DHT22;3864;48.180;14.178;2022-11-23T01:39:14;2.30;99.90
7646;DHT22;3864;48.180;14.178;2022-11-23T01:41:43;2.30;99.90
7646;DHT22;3864;48.180;14.178;2022-11-23T01:44:23;2.30;99.90
7646;DHT22;3864;48.180;14.178;2022-11-23T01:46:50;2.30;99.90
7646;DHT22;3864;48.180;14.178;2022-11-23T01:49:18;2.30;99.90
7646;DHT22;3864;48.180;14.178;2022-11-23T01:51:49;2.30;99.90
7646;DHT22;3864;48.180;14.178;2022-11-23T01:54:20;2.30;99.90
7646;DHT22;3864;48.180;14.178;2022-11-23T01:56:53;2.40;99.90
7646;DHT22;3864;48.180;14.178;2022-11-23T01:59:22;2.30;99.90
7646;DHT22;3864;48.180;14.178;2022-11-23T02:01:50;2.30;99.90
7646;DHT22;3864;48.180;14.178;2022-11-23T02:04:23;2.30;99.90
7646;DHT22;3864;48.180;14.178;2022-11-23T02:06:53;2.30;99.90
7646;DHT22;3864;48.180;14.178;2022-11-23T02:09:21;2.30;99.90
7646;DHT22;3864;48.180;14.178;2022-11-23T02:11:50;2.20;99.90
7646;DHT22;3864;48.180;14.178;2022-11-23T02:14:17;2.20;99.90
7646;DHT22;3864;48.180;14.178;2022-11-23T02:16:45;2.30;99.90
7646;DHT22;3864;48.180;14.178;2022-11-23T02:19:17;2.30;99.90
7646;DHT22;3864;48.180;14.178;2022-11-23T02:21:49;2.30;99.90
7646;DHT22;3864;48.180;14.178;2022-11-23T02:24:25;2.30;99.90
7646;DHT22;3864;48.180;14.178;2022-11-23T02:26:56;2.20;99.90
7646;DHT22;3864;48.180;14.178;2022-11-23T02:29:25;2.20;99.90
7646;DHT22;3864;48.180;14.178;2022-11-23T02:31:54;2.20;99.90
7646;DHT22;3864;48.180;14.178;2022-11-23T02:34:21;2.20;99.90
7646;DHT22;3864;48.180;14.178;2022-11-23T02:36:49;2.20;99.90
7646;DHT22;3864;48.180;14.178;2022-11-23T02:39:29;2.20;99.90
7646;DHT22;3864;48.180;14.178;2022-11-23T02:41:59;2.30;99.90
7646;DHT22;3864;48.180;14.178;2022-11-23T02:44:58;2.30;99.90
7646;DHT22;3864;48.180;14.178;2022-11-23T02:47:26;2.20;99.90
7646;DHT22;3864;48.180;14.178;2022-11-23T02:49:53;2.20;99.90
7646;DHT22;3864;48.180;14.178;2022-11-23T02:52:21;2.20;99.90
7646;DHT22;3864;48.180;14.178;2022-11-23T02:54:48;2.30;99.90
7646;DHT22;3864;48.180;14.178;2022-11-23T02:57:17;2.30;99.90
7646;DHT22;3864;48.180;14.178;2022-11-23T02:59:44;2.30;99.90
7646;DHT22;3864;48.180;14.178;2022-11-23T03:02:12;2.30;99.90
7646;DHT22;3864;48.180;14.178;2022-11-23T03:04:39;2.30;99.90
7646;DHT22;3864;48.180;14.178;2022-11-23T03:07:07;2.40;99.90
7646;DHT22;3864;48.180;14.178;2022-11-23T03:09:34;2.40;99.90
7646;DHT22;3864;48.180;14.178;2022-11-23T03:12:01;2.40;99.90
7646;DHT22;3864;48.180;14.178;2022-11-23T03:14:34;2.40;99.90
7646;DHT22;3864;48.180;14.178;2022-11-23T03:17:03;2.30;99.90
7646;DHT22;3864;48.180;14.178;2022-11-23T03:19:31;2.30;99.90
7646;DHT22;3864;48.180;14.178;2022-11-23T03:22:01;2.30;99.90
7646;DHT22;3864;48.180;14.178;2022-11-23T03:24:29;2.40;99.90
7646;DHT22;3864;48.180;14.178;2022-11-23T03:26:57;2.30;99.90
7646;DHT22;3864;48.180;14.178;2022-11-23T03:29:24;2.30;99.90
7646;DHT22;3864;48.180;14.178;2022-11-23T03:31:53;2.30;99.90
7646;DHT22;3864;48.180;14.178;2022-11-23T03:34:21;2.40;99.90
7646;DHT22;3864;48.180;14.178;2022-11-23T03:36:48;2.40;99.90
7646;DHT22;3864;48.180;14.178;2022-11-23T03:39:16;2.40;99.90
7646;DHT22;3864;48.180;14.178;2022-11-23T03:41:44;2.40;99.90
7646;DHT22;3864;48.180;14.178;2022-11-23T03:44:11;2.40;99.90
7646;DHT22;3864;48.180;14.178;2022-11-23T03:46:39;2.40;99.90
7646;DHT22;3864;48.180;14.178;2022-11-23T03:49:08;2.40;99.90
7646;DHT22;3864;48.180;14.178;2022-11-23T03:51:35;2.40;99.90
7646;DHT22;3864;48.180;14.178;2022-11-23T03:54:02;2.40;99.90
7646;DHT22;3864;48.180;14.178;2022-11-23T03:56:30;2.40;99.90
7646;DHT22;3864;48.180;14.178;2022-11-23T03:58:57;2.40;99.90
7646;DHT22;3864;48.180;14.178;2022-11-23T04:01:25;2.40;99.90
7646;DHT22;3864;48.180;14.178;2022-11-23T04:03:55;2.50;99.90
7646;DHT22;3864;48.180;14.178;2022-11-23T04:06:24;2.50;99.90
7646;DHT22;3864;48.180;14.178;2022-11-23T04:08:51;2.50;99.90
7646;DHT22;3864;48.180;14.178;2022-11-23T04:11:18;2.50;99.90
7646;DHT22;3864;48.180;14.178;2022-11-23T04:13:46;2.50;99.90
7646;DHT22;3864;48.180;14.178;2022-11-23T04:16:14;2.50;99.90
7646;DHT22;3864;48.180;14.178;2022-11-23T04:18:41;2.60;99.90
7646;DHT22;3864;48.180;14.178;2022-11-23T04:21:10;2.50;99.90
7646;DHT22;3864;48.180;14.178;2022-11-23T04:23:39;2.50;99.90
7646;DHT22;3864;48.180;14.178;2022-11-23T04:26:06;2.50;99.90
7646;DHT22;3864;48.180;14.178;2022-11-23T04:28:34;2.60;99.90
7646;DHT22;3864;48.180;14.178;2022-11-23T04:31:01;2.50;99.90
7646;DHT22;3864;48.180;14.178;2022-11-23T04:33:28;2.60;99.90
7646;DHT22;3864;48.180;14.178;2022-11-23T04:35:56;2.60;99.90
7646;DHT22;3864;48.180;14.178;2022-11-23T04:38:24;2.60;99.90
7646;DHT22;3864;48.180;14.178;2022-11-23T04:40:53;2.50;99.90
7646;DHT22;3864;48.180;14.178;2022-11-23T04:43:21;2.60;99.90
7646;DHT22;3864;48.180;14.178;2022-11-23T04:45:48;2.60;99.90
7646;DHT22;3864;48.180;14.178;2022-11-23T04:48:15;2.60;99.90
7646;DHT22;3864;48.180;14.178;2022-11-23T04:50:43;2.60;99.90
7646;DHT22;3864;48.180;14.178;2022-11-23T04:53:10;2.60;99.90
7646;DHT22;3864;48.180;14.178;2022-11-23T04:55:37;2.60;99.90
7646;DHT22;3864;48.180;14.178;2022-11-23T04:58:06;2.60;99.90
7646;DHT22;3864;48.180;14.178;2022-11-23T05:00:34;2.60;99.90
7646;DHT22;3864;48.180;14.178;2022-11-23T05:03:01;2.60;99.90
7646;DHT22;3864;48.180;14.178;2022-11-23T05:05:28;2.50;99.90
7646;DHT22;3864;48.180;14.178;2022-11-23T05:07:56;2.50;99.90
7646;DHT22;3864;48.180;14.178;2022-11-23T05:10:24;2.60;99.90
7646;DHT22;3864;48.180;14.178;2022-11-23T05:12:51;2.60;99.90
7646;DHT22;3864;48.180;14.178;2022-11-23T05:15:20;2.60;99.90
7646;DHT22;3864;48.180;14.178;2022-11-23T05:17:48;2.60;99.90
7646;DHT22;3864;48.180;14.178;2022-11-23T05:20:15;2.60;99.90
7646;DHT22;3864;48.180;14.178;2022-11-23T05:22:43;2.50;99.90
7646;DHT22;3864;48.180;14.178;2022-11-23T05:25:10;2.50;99.90
7646;DHT22;3864;48.180;14.178;2022-11-23T05:27:37;2.60;99.90
7646;DHT22;3864;48.180;14.178;2022-11-23T05:30:06;2.60;99.90
7646;DHT22;3864;48.180;14.178;2022-11-23T05:32:35;2.60;99.90
7646;DHT22;3864;48.180;14.178;2022-11-23T05:35:03;2.60;99.90
7646;DHT22;3864;48.180;14.178;2022-11-23T05:37:31;2.60;99.90
7646;DHT22;3864;48.180;14.178;2022-11-23T05:39:59;2.50;99.90
7646;DHT22;3864;48.180;14.178;2022-11-23T05:42:26;2.60;99.90
7646;DHT22;3864;48.180;14.178;2022-11-23T05:44:53;2.60;99.90
7646;DHT22;3864;48.180;14.178;2022-11-23T05:47:21;2.60;99.90
7646;DHT22;3864;48.180;14.178;2022-11-23T05:49:49;2.60;99.90
7646;DHT22;3864;48.180;14.178;2022-11-23T05:52:17;2.70;99.90
7646;DHT22;3864;48.180;14.178;2022-11-23T05:54:44;2.70;99.90
7646;DHT22;3864;48.180;14.178;2022-11-23T05:57:13;2.70;99.90
7646;DHT22;3864;48.180;14.178;2022-11-23T05:59:43;2.70;99.90
7646;DHT22;3864;48.180;14.178;2022-11-23T06:02:10;2.70;99.90
7646;DHT22;3864;48.180;14.178;2022-11-23T06:04:38;2.80;99.90
7646;DHT22;3864;48.180;14.178;2022-11-23T06:07:07;2.80;99.90
7646;DHT22;3864;48.180;14.178;2022-11-23T06:09:34;2.80;99.90
7646;DHT22;3864;48.180;14.178;2022-11-23T06:12:02;2.80;99.90
7646;DHT22;3864;48.180;14.178;2022-11-23T06:14:30;2.80;99.90
7646;DHT22;3864;48.180;14.178;2022-11-23T06:16:57;2.80;99.90
7646;DHT22;3864;48.180;14.178;2022-11-23T06:19:24;2.70;99.90
7646;DHT22;3864;48.180;14.178;2022-11-23T06:21:54;2.70;99.90
7646;DHT22;3864;48.180;14.178;2022-11-23T06:24:23;2.80;99.90
7646;DHT22;3864;48.180;14.178;2022-11-23T06:26:51;2.80;99.90
7646;DHT22;3864;48.180;14.178;2022-11-23T06:29:18;2.90;99.90
7646;DHT22;3864;48.180;14.178;2022-11-23T06:31:46;2.90;99.90
7646;DHT22;3864;48.180;14.178;2022-11-23T06:34:14;2.90;99.90
7646;DHT22;3864;48.180;14.178;2022-11-23T06:36:41;3.00;99.90
7646;DHT22;3864;48.180;14.178;2022-11-23T06:39:09;3.00;99.90
7646;DHT22;3864;48.180;14.178;2022-11-23T06:41:38;3.00;99.90
7646;DHT22;3864;48.180;14.178;2022-11-23T06:44:05;3.10;99.90
7646;DHT22;3864;48.180;14.178;2022-11-23T06:46:32;3.10;99.90
7646;DHT22;3864;48.180;14.178;2022-11-23T06:49:00;3.10;99.90
7646;DHT22;3864;48.180;14.178;2022-11-23T06:51:27;3.10;99.90
7646;DHT22;3864;48.180;14.178;2022-11-23T06:53:54;3.10;99.90
7646;DHT22;3864;48.180;14.178;2022-11-23T06:56:22;3.20;99.90
7646;DHT22;3864;48.180;14.178;2022-11-23T06:58:51;3.20;99.90
7646;DHT22;3864;48.180;14.178;2022-11-23T07:01:18;3.20;99.90
7646;DHT22;3864;48.180;14.178;2022-11-23T07:03:45;3.20;99.90
7646;DHT22;3864;48.180;14.178;2022-11-23T07:06:13;3.20;99.90
7646;DHT22;3864;48.180;14.178;2022-11-23T07:08:40;3.30;99.90
7646;DHT22;3864;48.180;14.178;2022-11-23T07:11:09;3.30;99.90
7646;DHT22;3864;48.180;14.178;2022-11-23T07:13:36;3.30;99.90
7646;DHT22;3864;48.180;14.178;2022-11-23T07:16:06;3.30;99.90
7646;DHT22;3864;48.180;14.178;2022-11-23T07:18:34;3.30;99.90
7646;DHT22;3864;48.180;14.178;2022-11-23T07:21:01;3.40;99.90
7646;DHT22;3864;48.180;14.178;2022-11-23T07:23:28;3.40;99.90
7646;DHT22;3864;48.180;14.178;2022-11-23T07:25:56;3.50;99.90
7646;DHT22;3864;48.180;14.178;2022-11-23T07:28:23;3.50;99.90
7646;DHT22;3864;48.180;14.178;2022-11-23T07:30:50;3.50;99.90
7646;DHT22;3864;48.180;14.178;2022-11-23T07:33:19;3.50;99.90
7646;DHT22;3864;48.180;14.178;2022-11-23T07:35:46;3.50;99.90
7646;DHT22;3864;48.180;14.178;2022-11-23T07:38:16;3.70;99.90
7646;DHT22;3864;48.180;14.178;2022-11-23T07:40:48;3.80;99.90
7646;DHT22;3864;48.180;14.178;2022-11-23T07:43:17;3.80;99.90
7646;DHT22;3864;48.180;14.178;2022-11-23T07:45:44;3.90;99.90
7646;DHT22;3864;48.180;14.178;2022-11-23T07:48:12;3.90;99.90
7646;DHT22;3864;48.180;14.178;2022-11-23T07:50:40;3.90;99.90
7646;DHT22;3864;48.180;14.178;2022-11-23T07:53:09;3.90;99.90
7646;DHT22;3864;48.180;14.178;2022-11-23T07:55:36;3.90;99.90
7646;DHT22;3864;48.180;14.178;2022-11-23T07:58:04;4.00;99.90
7646;DHT22;3864;48.180;14.178;2022-11-23T08:00:31;3.90;99.90
7646;DHT22;3864;48.180;14.178;2022-11-23T08:02:59;3.90;99.90
7646;DHT22;3864;48.180;14.178;2022-11-23T08:05:26;4.00;99.90
7646;DHT22;3864;48.180;14.178;2022-11-23T08:07:59;4.00;99.90
7646;DHT22;3864;48.180;14.178;2022-11-23T08:10:27;4.10;99.90
7646;DHT22;3864;48.180;14.178;2022-11-23T08:12:56;4.20;99.90
7646;DHT22;3864;48.180;14.178;2022-11-23T08:15:24;4.30;99.90
7646;DHT22;3864;48.180;14.178;2022-11-23T08:17:54;4.40;99.90
7646;DHT22;3864;48.180;14.178;2022-11-23T08:20:22;4.50;99.90
7646;DHT22;3864;48.180;14.178;2022-11-23T08:22:49;4.70;99.90
7646;DHT22;3864;48.180;14.178;2022-11-23T08:25:22;4.80;99.90
7646;DHT22;3864;48.180;14.178;2022-11-23T08:27:53;4.90;99.90
7646;DHT22;3864;48.180;14.178;2022-11-23T08:30:21;4.90;99.90
7646;DHT22;3864;48.180;14.178;2022-11-23T08:32:48;4.80;99.90
7646;DHT22;3864;48.180;14.178;2022-11-23T08:35:16;4.80;99.90
7646;DHT22;3864;48.180;14.178;2022-11-23T08:37:43;4.80;99.90
7646;DHT22;3864;48.180;14.178;2022-11-23T08:40:12;4.90;99.90
7646;DHT22;3864;48.180;14.178;2022-11-23T08:42:41;5.00;99.90
7646;DHT22;3864;48.180;14.178;2022-11-23T08:45:10;5.20;99.90
7646;DHT22;3864;48.180;14.178;2022-11-23T08:47:37;5.20;99.90
7646;DHT22;3864;48.180;14.178;2022-11-23T08:50:08;5.10;99.90
7646;DHT22;3864;48.180;14.178;2022-11-23T08:52:35;5.20;99.90
7646;DHT22;3864;48.180;14.178;2022-11-23T08:55:03;5.20;99.90
7646;DHT22;3864;48.180;14.178;2022-11-23T08:57:30;5.20;99.90
7646;DHT22;3864;48.180;14.178;2022-11-23T08:59:59;5.10;99.90
7646;DHT22;3864;48.180;14.178;2022-11-23T09:02:30;5.10;99.90
7646;DHT22;3864;48.180;14.178;2022-11-23T09:04:57;5.00;99.90
7646;DHT22;3864;48.180;14.178;2022-11-23T09:07:25;5.00;99.90
7646;DHT22;3864;48.180;14.178;2022-11-23T09:09:54;5.00;99.90
7646;DHT22;3864;48.180;14.178;2022-11-23T09:12:21;5.00;99.90
7646;DHT22;3864;48.180;14.178;2022-11-23T09:14:49;5.00;99.90
7646;DHT22;3864;48.180;14.178;2022-11-23T09:17:18;5.10;99.90
7646;DHT22;3864;48.180;14.178;2022-11-23T09:19:45;5.10;99.90
7646;DHT22;3864;48.180;14.178;2022-11-23T09:22:12;5.20;99.90
7646;DHT22;3864;48.180;14.178;2022-11-23T09:24:39;5.30;99.90
7646;DHT22;3864;48.180;14.178;2022-11-23T09:27:07;5.50;99.90
7646;DHT22;3864;48.180;14.178;2022-11-23T09:29:34;5.60;99.90
7646;DHT22;3864;48.180;14.178;2022-11-23T09:32:01;5.70;99.90
7646;DHT22;3864;48.180;14.178;2022-11-23T09:34:30;5.60;99.90
7646;DHT22;3864;48.180;14.178;2022-11-23T09:39:53;5.40;99.90
7646;DHT22;3864;48.180;14.178;2022-11-23T09:42:50;5.50;99.90
7646;DHT22;3864;48.180;14.178;2022-11-23T09:45:28;5.40;99.90
7646;DHT22;3864;48.180;14.178;2022-11-23T09:51:17;5.40;99.90
7646;DHT22;3864;48.180;14.178;2022-11-23T09:53:47;5.30;99.90
7646;DHT22;3864;48.180;14.178;2022-11-23T09:56:19;5.40;99.90
7646;DHT22;3864;48.180;14.178;2022-11-23T09:58:51;5.40;99.90
7646;DHT22;3864;48.180;14.178;2022-11-23T10:01:20;5.40;99.90
7646;DHT22;3864;48.180;14.178;2022-11-23T10:03:47;5.50;99.90
7646;DHT22;3864;48.180;14.178;2022-11-23T10:06:19;5.60;99.90
7646;DHT22;3864;48.180;14.178;2022-11-23T10:09:11;5.60;99.90
7646;DHT22;3864;48.180;14.178;2022-11-23T10:12:00;5.60;99.90
7646;DHT22;3864;48.180;14.178;2022-11-23T10:14:42;5.80;99.90
7646;DHT22;3864;48.180;14.178;2022-11-23T10:17:16;5.70;99.90
7646;DHT22;3864;48.180;14.178;2022-11-23T10:19:55;5.70;99.90
7646;DHT22;3864;48.180;14.178;2022-11-23T10:22:33;5.70;99.90
7646;DHT22;3864;48.180;14.178;2022-11-23T10:25:14;5.70;99.90
7646;DHT22;3864;48.180;14.178;2022-11-23T10:27:43;5.70;99.90
7646;DHT22;3864;48.180;14.178;2022-11-23T10:30:13;5.70;99.90
7646;DHT22;3864;48.180;14.178;2022-11-23T10:32:46;5.80;99.90
7646;DHT22;3864;48.180;14.178;2022-11-23T10:35:17;5.90;99.90
7646;DHT22;3864;48.180;14.178;2022-11-23T10:37:49;6.00;99.90
7646;DHT22;3864;48.180;14.178;2022-11-23T10:40:18;6.10;99.90
7646;DHT22;3864;48.180;14.178;2022-11-23T10:42:52;6.20;99.90
7646;DHT22;3864;48.180;14.178;2022-11-23T10:45:21;6.20;99.90
7646;DHT22;3864;48.180;14.178;2022-11-23T10:47:50;6.10;99.90
7646;DHT22;3864;48.180;14.178;2022-11-23T10:50:25;6.00;99.90
7646;DHT22;3864;48.180;14.178;2022-11-23T10:52:58;6.00;99.90
7646;DHT22;3864;48.180;14.178;2022-11-23T10:55:28;5.90;99.90
7646;DHT22;3864;48.180;14.178;2022-11-23T10:57:56;5.90;99.90
7646;DHT22;3864;48.180;14.178;2022-11-23T11:00:25;5.90;99.90
7646;DHT22;3864;48.180;14.178;2022-11-23T11:02:55;5.80;99.90
7646;DHT22;3864;48.180;14.178;2022-11-23T11:05:28;5.90;99.90
7646;DHT22;3864;48.180;14.178;2022-11-23T11:07:59;5.80;99.90
7646;DHT22;3864;48.180;14.178;2022-11-23T11:10:34;5.90;99.90
7646;DHT22;3864;48.180;14.178;2022-11-23T11:13:41;5.90;99.90
7646;DHT22;3864;48.180;14.178;2022-11-23T11:16:02;5.90;99.90
7646;DHT22;3864;48.180;14.178;2022-11-23T11:19:02;5.90;99.90
7646;DHT22;3864;48.180;14.178;2022-11-23T11:21:46;5.90;99.90
7646;DHT22;3864;48.180;14.178;2022-11-23T11:24:19;6.00;99.90
7646;DHT22;3864;48.180;14.178;2022-11-23T11:26:49;6.10;99.90
7646;DHT22;3864;48.180;14.178;2022-11-23T11:29:53;6.20;99.90
7646;DHT22;3864;48.180;14.178;2022-11-23T11:32:45;6.30;99.90
7646;DHT22;3864;48.180;14.178;2022-11-23T11:35:22;6.40;99.90
7646;DHT22;3864;48.180;14.178;2022-11-23T11:37:54;6.70;99.90
7646;DHT22;3864;48.180;14.178;2022-11-23T11:40:28;6.90;99.90
7646;DHT22;3864;48.180;14.178;2022-11-23T11:43:03;7.20;99.90
7646;DHT22;3864;48.180;14.178;2022-11-23T11:45:36;7.30;99.90
7646;DHT22;3864;48.180;14.178;2022-11-23T11:48:09;7.40;99.90
7646;DHT22;3864;48.180;14.178;2022-11-23T11:50:43;7.40;99.90
7646;DHT22;3864;48.180;14.178;2022-11-23T11:53:16;7.60;99.90
7646;DHT22;3864;48.180;14.178;2022-11-23T11:55:49;7.60;99.90
7646;DHT22;3864;48.180;14.178;2022-11-23T11:58:17;7.70;99.90
7646;DHT22;3864;48.180;14.178;2022-11-23T12:00:47;7.80;99.90
7646;DHT22;3864;48.180;14.178;2022-11-23T12:03:25;7.90;99.90
7646;DHT22;3864;48.180;14.178;2022-11-23T12:06:04;7.90;99.90
7646;DHT22;3864;48.180;14.178;2022-11-23T12:08:39;7.70;99.90
7646;DHT22;3864;48.180;14.178;2022-11-23T12:11:11;7.60;99.90
7646;DHT22;3864;48.180;14.178;2022-11-23T12:13:41;7.60;99.90
7646;DHT22;3864;48.180;14.178;2022-11-23T12:16:27;7.50;99.90
7646;DHT22;3864;48.180;14.178;2022-11-23T12:19:15;7.50;99.90
7646;DHT22;3864;48.180;14.178;2022-11-23T12:22:16;7.20;99.90
7646;DHT22;3864;48.180;14.178;2022-11-23T12:25:08;7.10;99.90
7646;DHT22;3864;48.180;14.178;2022-11-23T12:27:45;6.80;99.90
7646;DHT22;3864;48.180;14.178;2022-11-23T12:30:22;6.80;99.90
7646;DHT22;3864;48.180;14.178;2022-11-23T12:36:00;6.90;99.90
7646;DHT22;3864;48.180;14.178;2022-11-23T12:38:38;6.80;99.90
7646;DHT22;3864;48.180;14.178;2022-11-23T12:41:33;6.80;99.90
7646;DHT22;3864;48.180;14.178;2022-11-23T12:47:12;6.80;99.90
7646;DHT22;3864;48.180;14.178;2022-11-23T12:49:44;6.80;99.90
7646;DHT22;3864;48.180;14.178;2022-11-23T12:52:31;6.80;99.90
7646;DHT22;3864;48.180;14.178;2022-11-23T12:55:14;6.80;99.90
7646;DHT22;3864;48.180;14.178;2022-11-23T12:57:49;6.90;99.90
7646;DHT22;3864;48.180;14.178;2022-11-23T13:00:19;6.80;99.90
7646;DHT22;3864;48.180;14.178;2022-11-23T13:03:23;6.90;99.90
7646;DHT22;3864;48.180;14.178;2022-11-23T13:09:31;7.10;99.90
7646;DHT22;3864;48.180;14.178;2022-11-23T13:12:16;7.10;99.90
7646;DHT22;3864;48.180;14.178;2022-11-23T13:14:51;7.00;99.90
7646;DHT22;3864;48.180;14.178;2022-11-23T13:17:27;7.10;99.90
7646;DHT22;3864;48.180;14.178;2022-11-23T13:20:25;7.10;99.90
7646;DHT22;3864;48.180;14.178;2022-11-23T13:22:55;7.20;99.90
7646;DHT22;3864;48.180;14.178;2022-11-23T13:25:26;7.20;99.90
7646;DHT22;3864;48.180;14.178;2022-11-23T13:28:02;7.20;99.90
7646;DHT22;3864;48.180;14.178;2022-11-23T13:30:32;7.20;99.90
7646;DHT22;3864;48.180;14.178;2022-11-23T13:33:25;7.30;99.90
7646;DHT22;3864;48.180;14.178;2022-11-23T13:35:57;7.30;99.90
7646;DHT22;3864;48.180;14.178;2022-11-23T13:38:41;7.30;99.90
7646;DHT22;3864;48.180;14.178;2022-11-23T13:44:27;7.20;99.90
7646;DHT22;3864;48.180;14.178;2022-11-23T13:47:05;7.10;99.90
7646;DHT22;3864;48.180;14.178;2022-11-23T13:49:39;7.10;99.90
7646;DHT22;3864;48.180;14.178;2022-11-23T13:52:34;7.00;99.90
7646;DHT22;3864;48.180;14.178;2022-11-23T13:55:06;6.90;99.90
7646;DHT22;3864;48.180;14.178;2022-11-23T13:57:46;6.90;99.90
7646;DHT22;3864;48.180;14.178;2022-11-23T14:00:51;7.00;99.90
7646;DHT22;3864;48.180;14.178;2022-11-23T14:03:47;7.00;99.90
7646;DHT22;3864;48.180;14.178;2022-11-23T14:06:37;7.00;99.90
7646;DHT22;3864;48.180;14.178;2022-11-23T14:09:14;7.00;99.90
7646;DHT22;3864;48.180;14.178;2022-11-23T14:11:53;7.00;99.90
7646;DHT22;3864;48.180;14.178;2022-11-23T14:14:27;7.00;99.90
7646;DHT22;3864;48.180;14.178;2022-11-23T14:17:18;6.90;99.90
7646;DHT22;3864;48.180;14.178;2022-11-23T14:22:59;6.90;99.90
7646;DHT22;3864;48.180;14.178;2022-11-23T14:25:38;6.90;99.90
7646;DHT22;3864;48.180;14.178;2022-11-23T14:28:20;6.80;99.90
7646;DHT22;3864;48.180;14.178;2022-11-23T14:31:02;6.80;99.90
7646;DHT22;3864;48.180;14.178;2022-11-23T14:33:40;6.70;99.90
7646;DHT22;3864;48.180;14.178;2022-11-23T14:36:22;6.70;99.90
7646;DHT22;3864;48.180;14.178;2022-11-23T14:39:01;6.60;99.90
7646;DHT22;3864;48.180;14.178;2022-11-23T14:41:32;6.40;99.90
7646;DHT22;3864;48.180;14.178;2022-11-23T14:44:04;6.20;99.90
7646;DHT22;3864;48.180;14.178;2022-11-23T14:46:32;6.10;99.90
7646;DHT22;3864;48.180;14.178;2022-11-23T14:49:04;5.90;99.90
7646;DHT22;3864;48.180;14.178;2022-11-23T14:51:34;5.80;99.90
7646;DHT22;3864;48.180;14.178;2022-11-23T14:54:07;5.80;99.90
7646;DHT22;3864;48.180;14.178;2022-11-23T14:56:37;5.70;99.90
7646;DHT22;3864;48.180;14.178;2022-11-23T14:59:07;5.70;99.90
7646;DHT22;3864;48.180;14.178;2022-11-23T15:01:36;5.60;99.90
7646;DHT22;3864;48.180;14.178;2022-11-23T15:04:09;5.60;99.90
7646;DHT22;3864;48.180;14.178;2022-11-23T15:06:42;5.50;99.90
7646;DHT22;3864;48.180;14.178;2022-11-23T15:09:18;5.50;99.90
7646;DHT22;3864;48.180;14.178;2022-11-23T15:11:47;5.40;99.90
7646;DHT22;3864;48.180;14.178;2022-11-23T15:14:19;5.30;99.90
7646;DHT22;3864;48.180;14.178;2022-11-23T15:16:47;5.20;99.90
7646;DHT22;3864;48.180;14.178;2022-11-23T15:19:26;5.20;99.90
7646;DHT22;3864;48.180;14.178;2022-11-23T15:21:54;5.20;99.90
7646;DHT22;3864;48.180;14.178;2022-11-23T15:24:22;5.10;99.90
7646;DHT22;3864;48.180;14.178;2022-11-23T15:26:51;5.10;99.90
7646;DHT22;3864;48.180;14.178;2022-11-23T15:29:32;5.00;99.90
7646;DHT22;3864;48.180;14.178;2022-11-23T15:32:00;4.90;99.90
7646;DHT22;3864;48.180;14.178;2022-11-23T15:34:30;4.70;99.90
7646;DHT22;3864;48.180;14.178;2022-11-23T15:36:58;4.60;99.90
7646;DHT22;3864;48.180;14.178;2022-11-23T15:39:25;4.40;99.90
7646;DHT22;3864;48.180;14.178;2022-11-23T15:41:53;4.20;99.90
7646;DHT22;3864;48.180;14.178;2022-11-23T15:44:23;4.10;99.90
7646;DHT22;3864;48.180;14.178;2022-11-23T15:46:52;3.90;99.90
7646;DHT22;3864;48.180;14.178;2022-11-23T15:49:20;3.90;99.90
7646;DHT22;3864;48.180;14.178;2022-11-23T15:51:50;3.80;99.90
7646;DHT22;3864;48.180;14.178;2022-11-23T15:54:21;3.60;99.90
7646;DHT22;3864;48.180;14.178;2022-11-23T15:56:53;3.50;99.90
7646;DHT22;3864;48.180;14.178;2022-11-23T15:59:30;3.50;99.90
7646;DHT22;3864;48.180;14.178;2022-11-23T16:01:59;3.40;99.90
7646;DHT22;3864;48.180;14.178;2022-11-23T16:04:28;3.40;99.90
7646;DHT22;3864;48.180;14.178;2022-11-23T16:07:11;3.40;99.90
7646;DHT22;3864;48.180;14.178;2022-11-23T16:09:42;3.40;99.90
7646;DHT22;3864;48.180;14.178;2022-11-23T16:12:33;3.30;99.90
7646;DHT22;3864;48.180;14.178;2022-11-23T16:15:34;3.30;99.90
7646;DHT22;3864;48.180;14.178;2022-11-23T16:18:03;3.20;99.90
7646;DHT22;3864;48.180;14.178;2022-11-23T16:20:33;3.20;99.90
7646;DHT22;3864;48.180;14.178;2022-11-23T16:23:03;3.20;99.90
7646;DHT22;3864;48.180;14.178;2022-11-23T16:25:32;3.10;99.90
7646;DHT22;3864;48.180;14.178;2022-11-23T16:28:01;3.00;99.90
7646;DHT22;3864;48.180;14.178;2022-11-23T16:30:35;3.00;99.90
7646;DHT22;3864;48.180;14.178;2022-11-23T16:33:02;3.00;99.90
7646;DHT22;3864;48.180;14.178;2022-11-23T16:35:30;2.90;99.90
7646;DHT22;3864;48.180;14.178;2022-11-23T16:37:57;2.90;99.90
7646;DHT22;3864;48.180;14.178;2022-11-23T16:40:26;2.90;99.90
7646;DHT22;3864;48.180;14.178;2022-11-23T16:42:53;3.00;99.90
7646;DHT22;3864;48.180;14.178;2022-11-23T16:45:20;3.10;99.90
7646;DHT22;3864;48.180;14.178;2022-11-23T16:47:53;3.10;99.90
7646;DHT22;3864;48.180;14.178;2022-11-23T16:50:21;3.10;99.90